createdAt,value
2019-01-08T21:51:21.516Z,78.29
2019-01-08T21:53:50.160Z,78.43
2019-01-08T21:56:18.909Z,78.28
2019-01-08T21:58:47.544Z,77.67
2019-01-08T22:01:16.412Z,78.52
2019-01-08T22:03:45.071Z,78.83
2019-01-08T22:06:13.949Z,78.39
2019-01-08T22:08:42.664Z,77.18
2019-01-08T22:11:11.372Z,78.02
2019-01-08T22:13:40.063Z,77.32
2019-01-08T22:16:08.712Z,77.11
2019-01-08T22:18:37.342Z,75.65
2019-01-08T22:21:06.022Z,73.23
2019-01-08T22:23:34.655Z,72.24
2019-01-08T22:26:03.367Z,69.92
2019-01-08T22:28:32.108Z,69.32
2019-01-08T22:31:01.070Z,67.59
2019-01-08T22:33:29.691Z,66.69
2019-01-08T22:35:58.577Z,66.08
2019-01-08T22:38:27.419Z,64.45
2019-01-08T22:40:56.130Z,65.13
2019-01-08T22:43:24.663Z,63.59
2019-01-08T22:45:53.422Z,65.29
2019-01-08T22:48:22.180Z,65.57
2019-01-08T22:50:51.380Z,65.27
2019-01-08T22:53:19.997Z,66.89
2019-01-08T22:55:48.670Z,66.68
2019-01-08T22:58:19.833Z,66.74
2019-01-08T23:01:11.642Z,67.90
2019-01-08T23:03:40.308Z,67.06
2019-01-08T23:06:09.279Z,67.54
2019-01-08T23:08:37.929Z,67.88
2019-01-08T23:11:06.623Z,68.34
2019-01-08T23:13:36.414Z,67.42
2019-01-08T23:16:05.101Z,65.87
2019-01-08T23:18:33.877Z,65.02
2019-01-08T23:21:02.542Z,63.96
2019-01-08T23:23:31.152Z,64.82
2019-01-08T23:25:59.842Z,63.34
2019-01-08T23:28:28.556Z,63.23
2019-01-08T23:30:57.209Z,63.42
2019-01-08T23:33:25.883Z,64.29
2019-01-08T23:35:54.568Z,64.07
2019-01-08T23:38:23.179Z,64.45
2019-01-08T23:40:52.077Z,63.20
2019-01-08T23:43:20.845Z,63.39
2019-01-08T23:45:49.566Z,63.40
2019-01-08T23:48:18.192Z,64.12
2019-01-08T23:50:46.908Z,63.61
2019-01-08T23:53:34.959Z,63.40
2019-01-08T23:56:07.535Z,63.63
2019-01-08T23:58:36.205Z,64.15
